createdAt,value
2023-02-02T00:01:23.189Z,74.38
2023-02-02T00:03:52.303Z,74.81
2023-02-02T00:06:20.888Z,75.17
2023-02-02T00:08:48.646Z,75.14
2023-02-02T00:11:16.479Z,75.64
2023-02-02T00:13:44.187Z,75.21
2023-02-02T00:16:37.902Z,76.52
2023-02-02T00:19:09.263Z,75.65
2023-02-02T00:21:38.202Z,76.34
2023-02-02T00:24:07.018Z,76.40
2023-02-02T00:26:35.273Z,76.74
2023-02-02T00:29:03.102Z,76.78
2023-02-02T00:31:30.642Z,76.76
2023-02-02T00:33:58.233Z,76.57
2023-02-02T00:36:27.607Z,77.14
2023-02-02T00:38:55.106Z,76.57
2023-02-02T00:41:22.649Z,76.59
2023-02-02T00:44:10.332Z,76.76
2023-02-02T00:46:40.205Z,77.13
2023-02-02T00:49:07.935Z,77.08
2023-02-02T00:51:37.304Z,76.74
2023-02-02T00:54:05.462Z,77.00
2023-02-02T00:56:32.964Z,76.91
2023-02-02T00:59:00.495Z,77.23
2023-02-02T01:01:28.614Z,77.19
2023-02-02T01:03:56.092Z,77.59
2023-02-02T01:06:23.683Z,77.82
2023-02-02T01:08:52.801Z,77.71
2023-02-02T01:11:20.635Z,77.80
2023-02-02T01:13:48.227Z,77.78
2023-02-02T01:16:15.854Z,77.64
2023-02-02T01:18:43.739Z,77.48
2023-02-02T01:21:12.970Z,77.64
2023-02-02T01:23:40.738Z,77.93
2023-02-02T01:26:11.588Z,77.74
2023-02-02T01:28:39.595Z,77.65
2023-02-02T01:31:08.897Z,78.03
2023-02-02T01:33:36.926Z,78.16
2023-02-02T01:36:07.525Z,77.90
2023-02-02T01:38:35.775Z,77.75
2023-02-02T01:41:04.431Z,77.89
2023-02-02T01:43:53.178Z,78.13
2023-02-02T01:46:22.340Z,78.05
2023-02-02T01:48:54.262Z,78.15
2023-02-02T01:51:28.506Z,78.36
2023-02-02T01:53:59.125Z,78.36
2023-02-02T01:56:30.051Z,78.34
2023-02-02T01:59:00.484Z,78.55
2023-02-02T02:01:28.923Z,78.24
2023-02-02T02:03:57.191Z,78.18
2023-02-02T02:06:26.066Z,78.08
2023-02-02T02:08:56.620Z,78.82
2023-02-02T02:11:24.930Z,78.46
2023-02-02T02:14:11.464Z,78.88
2023-02-02T02:16:54.426Z,79.43
2023-02-02T02:19:58.341Z,79.38
2023-02-02T02:22:59.061Z,78.98
2023-02-02T02:26:05.077Z,79.00
2023-02-02T02:28:53.252Z,78.98
2023-02-02T02:31:52.593Z,79.03
2023-02-02T02:34:28.046Z,79.13
2023-02-02T02:37:03.567Z,79.05
2023-02-02T02:39:38.538Z,79.05
2023-02-02T02:42:14.181Z,79.37
2023-02-02T02:44:42.831Z,79.03
2023-02-02T02:47:12.250Z,79.61
2023-02-02T02:49:44.209Z,79.66
2023-02-02T02:52:11.744Z,79.21
2023-02-02T02:54:43.083Z,79.45
2023-02-02T02:57:30.564Z,79.56
2023-02-02T03:00:04.961Z,79.48
2023-02-02T03:02:45.162Z,80.07
2023-02-02T03:05:27.462Z,79.52
2023-02-02T03:08:04.798Z,79.71
2023-02-02T03:10:33.725Z,79.44
2023-02-02T03:13:01.323Z,79.77
2023-02-02T03:15:28.905Z,79.62
2023-02-02T03:17:57.778Z,79.70
2023-02-02T03:20:25.230Z,79.56
2023-02-02T03:22:52.700Z,79.66
2023-02-02T03:25:20.153Z,79.55
2023-02-02T03:27:47.953Z,80.04
2023-02-02T03:30:15.917Z,79.82
2023-02-02T03:32:43.880Z,80.17
2023-02-02T03:35:12.719Z,80.33
2023-02-02T03:37:40.176Z,79.94
2023-02-02T03:40:08.392Z,79.72
2023-02-02T03:42:35.871Z,79.86
2023-02-02T03:45:03.537Z,79.82
2023-02-02T03:47:31.378Z,79.67
2023-02-02T03:49:58.884Z,79.59
2023-02-02T03:52:27.687Z,79.63
2023-02-02T03:54:55.138Z,80.13
2023-02-02T03:57:22.618Z,80.09
2023-02-02T03:59:50.216Z,79.75
2023-02-02T04:02:17.726Z,79.91
2023-02-02T04:04:45.325Z,79.98
2023-02-02T04:07:12.782Z,80.38
2023-02-02T04:09:41.617Z,80.36
2023-02-02T04:12:09.214Z,80.13
2023-02-02T04:14:36.696Z,80.64
2023-02-02T04:17:04.188Z,80.63
2023-02-02T04:19:31.678Z,80.45
2023-02-02T04:21:59.148Z,80.86
2023-02-02T04:24:26.652Z,80.81
2023-02-02T04:26:55.570Z,80.87
2023-02-02T04:29:23.374Z,80.61
2023-02-02T04:31:50.957Z,80.46
2023-02-02T04:34:18.651Z,80.37
2023-02-02T04:36:46.127Z,80.51
2023-02-02T04:39:13.841Z,80.48
2023-02-02T04:41:41.738Z,80.89
2023-02-02T04:44:15.365Z,80.48
2023-02-02T04:46:42.929Z,80.52
2023-02-02T04:49:10.806Z,80.62
2023-02-02T04:51:38.744Z,80.54
2023-02-02T04:54:07.383Z,80.58
2023-02-02T04:56:35.055Z,80.46
2023-02-02T04:59:02.581Z,80.58
2023-02-02T05:01:31.427Z,80.56
2023-02-02T05:03:59.070Z,80.26
2023-02-02T05:06:26.612Z,80.51
2023-02-02T05:08:54.088Z,80.44
2023-02-02T05:11:23.835Z,80.63
2023-02-02T05:13:53.284Z,80.45
2023-02-02T05:16:21.967Z,80.60
2023-02-02T05:18:51.979Z,80.98
2023-02-02T05:21:19.542Z,80.78
2023-02-02T05:23:47.137Z,80.86
2023-02-02T05:26:22.294Z,81.13
2023-02-02T05:28:49.908Z,81.09
2023-02-02T05:31:17.609Z,80.62
2023-02-02T05:33:45.513Z,80.67
2023-02-02T05:36:14.817Z,80.71
2023-02-02T05:38:42.296Z,81.08
2023-02-02T05:41:10.032Z,80.76
2023-02-02T05:43:37.639Z,80.93
2023-02-02T05:46:05.486Z,80.97
2023-02-02T05:48:33.199Z,80.50
2023-02-02T05:51:05.561Z,81.19
2023-02-02T05:53:34.417Z,81.20
2023-02-02T05:56:02.046Z,80.97
2023-02-02T05:58:29.743Z,81.14
2023-02-02T06:00:57.225Z,80.92
2023-02-02T06:03:25.079Z,81.17
2023-02-02T06:05:52.711Z,80.96
2023-02-02T06:08:20.243Z,80.59
2023-02-02T06:10:49.300Z,80.49
2023-02-02T06:13:16.791Z,81.04
2023-02-02T06:15:44.318Z,80.90
2023-02-02T06:18:11.993Z,80.72
2023-02-02T06:20:39.452Z,80.77
2023-02-02T06:23:07.007Z,81.50
2023-02-02T06:25:35.160Z,81.50
2023-02-02T06:28:04.344Z,81.80
2023-02-02T06:30:31.891Z,80.97
2023-02-02T06:33:00.693Z,81.42
2023-02-02T06:35:28.265Z,81.11
2023-02-02T06:37:55.736Z,81.40
2023-02-02T06:40:23.192Z,81.46
2023-02-02T06:42:56.893Z,81.53
2023-02-02T06:45:26.281Z,81.27
2023-02-02T06:47:54.758Z,81.03
2023-02-02T06:50:22.285Z,81.04
2023-02-02T06:52:49.945Z,81.31
2023-02-02T06:55:18.331Z,81.21
2023-02-02T06:57:46.035Z,81.36
2023-02-02T07:00:14.902Z,81.87
2023-02-02T07:02:47.281Z,81.91
2023-02-02T07:05:14.805Z,81.48
2023-02-02T07:07:42.270Z,81.58
2023-02-02T07:10:10.399Z,81.82
2023-02-02T07:12:57.866Z,81.42
2023-02-02T07:15:25.791Z,81.28
2023-02-02T07:17:55.584Z,81.27
2023-02-02T07:20:23.075Z,81.48
2023-02-02T07:22:50.538Z,81.32
2023-02-02T07:25:18.243Z,81.34
2023-02-02T07:27:46.821Z,81.57
2023-02-02T07:30:16.019Z,81.47
2023-02-02T07:32:47.777Z,81.60
2023-02-02T07:35:17.048Z,81.67
2023-02-02T07:37:44.916Z,81.16
2023-02-02T07:40:13.353Z,81.47
2023-02-02T07:42:40.823Z,81.62
2023-02-02T07:45:27.501Z,81.81
2023-02-02T07:47:59.555Z,81.66
2023-02-02T07:50:30.628Z,81.59
2023-02-02T07:53:00.037Z,81.73
2023-02-02T07:55:28.332Z,82.00
2023-02-02T07:57:58.815Z,82.11
2023-02-02T08:00:26.814Z,82.24
2023-02-02T08:02:54.781Z,82.02
2023-02-02T08:05:22.822Z,81.78
2023-02-02T08:07:51.996Z,82.00
2023-02-02T08:10:19.537Z,81.89
2023-02-02T08:12:47.077Z,81.63
2023-02-02T08:15:14.617Z,82.00
2023-02-02T08:17:46.318Z,81.54
2023-02-02T08:20:14.454Z,81.68
2023-02-02T08:22:41.942Z,81.69
2023-02-02T08:25:11.160Z,81.66
2023-02-02T08:27:38.637Z,81.40
2023-02-02T08:30:06.869Z,81.56
2023-02-02T08:32:34.438Z,81.46
2023-02-02T08:35:01.959Z,81.44
2023-02-02T08:37:29.472Z,81.65
2023-02-02T08:39:56.978Z,81.55
2023-02-02T08:42:25.992Z,81.29
2023-02-02T08:46:13.694Z,81.75
2023-02-02T08:47:41.771Z,81.70
2023-02-02T08:50:10.819Z,82.04
2023-02-02T08:52:38.316Z,82.20
2023-02-02T08:55:07.049Z,82.17
2023-02-02T08:57:35.902Z,82.40
2023-02-02T09:00:03.933Z,82.02
2023-02-02T09:02:31.489Z,82.38
2023-02-02T09:04:59.269Z,82.30
2023-02-02T09:07:26.741Z,82.52
2023-02-02T09:09:55.733Z,82.59
2023-02-02T09:12:23.225Z,82.53
2023-02-02T09:14:52.096Z,82.44
2023-02-02T09:17:19.628Z,82.87
2023-02-02T09:19:47.107Z,83.18
2023-02-02T09:22:14.595Z,82.54
2023-02-02T09:24:42.092Z,82.89
2023-02-02T09:27:09.559Z,82.46
2023-02-02T09:29:37.095Z,82.33
2023-02-02T09:32:06.491Z,82.89
2023-02-02T09:34:34.016Z,82.73
2023-02-02T09:37:01.579Z,82.72
2023-02-02T09:39:29.070Z,82.40
2023-02-02T09:42:14.244Z,82.71
2023-02-02T09:45:13.313Z,82.71
2023-02-02T09:48:09.874Z,82.91
2023-02-02T09:50:46.753Z,82.65
2023-02-02T09:53:28.261Z,83.44
2023-02-02T09:55:59.714Z,83.35
2023-02-02T09:58:32.039Z,82.76
2023-02-02T10:01:04.279Z,83.09
2023-02-02T10:03:39.433Z,82.94
2023-02-02T10:06:19.256Z,82.39
2023-02-02T10:08:53.204Z,82.29
2023-02-02T10:11:31.955Z,82.45
2023-02-02T10:14:03.879Z,82.73
2023-02-02T10:16:33.426Z,82.44
2023-02-02T10:19:05.225Z,82.60
2023-02-02T10:21:40.297Z,82.78
2023-02-02T10:24:18.121Z,82.67
2023-02-02T10:26:48.411Z,82.50
2023-02-02T10:29:40.070Z,82.77
2023-02-02T10:32:23.402Z,82.15
2023-02-02T10:35:13.541Z,82.51
2023-02-02T10:37:47.963Z,82.06
2023-02-02T10:40:25.944Z,82.43
2023-02-02T10:43:31.029Z,82.40
2023-02-02T10:46:00.319Z,81.93
2023-02-02T10:48:32.728Z,81.85
2023-02-02T10:51:05.598Z,82.09
2023-02-02T10:53:33.933Z,82.75
2023-02-02T10:56:06.754Z,82.35
2023-02-02T10:58:39.022Z,82.46
2023-02-02T11:01:11.535Z,81.71
2023-02-02T11:03:39.987Z,81.74
2023-02-02T11:06:26.862Z,82.21
2023-02-02T11:08:59.287Z,82.29
2023-02-02T11:11:30.435Z,82.28
2023-02-02T11:14:03.278Z,82.51
2023-02-02T11:16:42.090Z,82.30
2023-02-02T11:19:24.058Z,82.72
2023-02-02T11:21:55.106Z,82.50
2023-02-02T11:24:25.374Z,81.99
2023-02-02T11:26:56.403Z,81.82
2023-02-02T11:29:28.022Z,81.85
2023-02-02T11:31:56.296Z,82.06
2023-02-02T11:34:26.203Z,81.80
2023-02-02T11:37:13.593Z,82.01
2023-02-02T11:39:41.835Z,81.87
2023-02-02T11:42:16.031Z,81.83
2023-02-02T11:44:48.670Z,81.42
2023-02-02T11:47:22.686Z,81.32
2023-02-02T11:49:51.736Z,81.55
2023-02-02T11:52:24.756Z,81.63
2023-02-02T11:54:55.295Z,81.59
2023-02-02T11:57:25.418Z,81.62
2023-02-02T12:00:16.069Z,82.35
2023-02-02T12:02:47.617Z,82.25
2023-02-02T12:05:33.988Z,81.66
2023-02-02T12:08:02.855Z,81.58
2023-02-02T12:10:36.803Z,81.49
2023-02-02T12:13:10.713Z,81.36
2023-02-02T12:15:48.627Z,82.08
2023-02-02T12:18:35.599Z,81.60
2023-02-02T12:21:06.799Z,81.75
2023-02-02T12:23:52.060Z,82.35
2023-02-02T12:26:25.622Z,81.50
2023-02-02T12:29:22.129Z,81.59
2023-02-02T12:32:07.296Z,81.49
2023-02-02T12:34:48.820Z,81.84
2023-02-02T12:37:27.287Z,81.88
2023-02-02T12:40:11.802Z,81.96
2023-02-02T12:42:53.545Z,82.01
2023-02-02T12:45:35.981Z,81.72
2023-02-02T12:48:18.398Z,82.29
2023-02-02T12:50:59.799Z,81.74
2023-02-02T12:53:39.029Z,82.16
2023-02-02T12:56:20.798Z,81.76
2023-02-02T12:59:00.016Z,82.11
2023-02-02T13:01:45.051Z,82.04
2023-02-02T13:04:31.518Z,81.57
2023-02-02T13:07:15.446Z,81.95
2023-02-02T13:09:49.796Z,82.15
2023-02-02T13:12:23.064Z,82.39
2023-02-02T13:14:52.663Z,82.23
2023-02-02T13:17:25.523Z,82.23
2023-02-02T13:19:54.162Z,82.63
2023-02-02T13:22:24.905Z,82.35
2023-02-02T13:24:54.883Z,81.87
2023-02-02T13:27:25.189Z,81.97
2023-02-02T13:29:54.582Z,82.25
2023-02-02T13:32:25.757Z,82.11
2023-02-02T13:34:55.519Z,81.84
2023-02-02T13:37:26.816Z,81.27
2023-02-02T13:39:57.247Z,81.44
2023-02-02T13:42:33.281Z,81.47
2023-02-02T13:45:03.164Z,81.45
2023-02-02T13:47:35.391Z,81.76
2023-02-02T13:50:05.661Z,81.28
2023-02-02T13:52:42.438Z,81.43
2023-02-02T13:55:35.705Z,81.54
2023-02-02T13:58:17.156Z,82.09
2023-02-02T14:00:47.685Z,82.16
2023-02-02T14:03:28.648Z,81.96
2023-02-02T14:06:09.668Z,82.07
2023-02-02T14:08:37.603Z,82.24
2023-02-02T14:11:06.576Z,82.05
2023-02-02T14:14:01.612Z,82.32
2023-02-02T14:16:48.839Z,82.30
2023-02-02T14:19:17.117Z,82.25
2023-02-02T14:21:59.336Z,81.87
2023-02-02T14:24:40.825Z,82.12
2023-02-02T14:27:23.244Z,82.09
2023-02-02T14:30:01.728Z,82.56
2023-02-02T14:32:30.593Z,82.14
2023-02-02T14:34:58.519Z,82.27
2023-02-02T14:37:32.712Z,82.24
2023-02-02T14:40:04.221Z,82.34
2023-02-02T14:42:57.709Z,82.09
2023-02-02T14:45:28.879Z,82.44
2023-02-02T14:47:59.542Z,82.14
2023-02-02T14:50:30.509Z,82.46
2023-02-02T14:53:02.655Z,82.46
2023-02-02T14:55:30.640Z,82.35
2023-02-02T14:57:59.577Z,82.07
2023-02-02T15:00:30.484Z,82.05
2023-02-02T15:02:57.868Z,82.11
2023-02-02T15:05:41.698Z,82.19
2023-02-02T15:08:15.210Z,82.02
2023-02-02T15:11:23.284Z,82.03
2023-02-02T15:13:52.912Z,82.30
2023-02-02T15:16:24.901Z,82.04
2023-02-02T15:18:58.823Z,82.06
2023-02-02T15:21:27.812Z,81.89
2023-02-02T15:23:55.486Z,82.11
2023-02-02T15:26:24.951Z,81.75
2023-02-02T15:28:54.201Z,82.28
2023-02-02T15:31:29.739Z,81.92
2023-02-02T15:33:59.421Z,81.94
2023-02-02T15:36:27.627Z,81.75
2023-02-02T15:38:57.210Z,81.94
2023-02-02T15:41:26.169Z,81.92
2023-02-02T15:43:53.582Z,81.89
2023-02-02T15:46:25.036Z,81.52
2023-02-02T15:49:14.067Z,81.75
2023-02-02T15:51:46.380Z,81.94
2023-02-02T15:54:23.925Z,81.64
2023-02-02T15:56:51.315Z,81.76
2023-02-02T15:59:20.707Z,81.79
2023-02-02T16:01:49.795Z,81.78
2023-02-02T16:04:19.057Z,82.06
2023-02-02T16:06:48.231Z,81.96
2023-02-02T16:09:24.982Z,81.92
2023-02-02T16:11:52.626Z,81.92
2023-02-02T16:14:20.732Z,81.74
2023-02-02T16:16:49.665Z,81.91
2023-02-02T16:19:20.198Z,81.90
2023-02-02T16:21:51.820Z,81.61
2023-02-02T16:24:21.714Z,81.84
2023-02-02T16:26:50.168Z,82.06
2023-02-02T16:29:19.212Z,82.09
2023-02-02T16:31:47.367Z,81.91
2023-02-02T16:34:16.020Z,81.86
2023-02-02T16:36:43.457Z,82.06
2023-02-02T16:39:18.103Z,82.02
2023-02-02T16:41:49.131Z,81.94
2023-02-02T16:44:31.630Z,81.96
2023-02-02T16:46:59.751Z,81.99
2023-02-02T16:49:27.515Z,82.24
2023-02-02T16:52:09.020Z,81.82
2023-02-02T16:54:38.212Z,81.71
2023-02-02T16:57:06.266Z,81.83
2023-02-02T16:59:35.851Z,81.85
2023-02-02T17:02:04.907Z,81.93
2023-02-02T17:04:32.924Z,81.60
2023-02-02T17:07:06.565Z,81.52
2023-02-02T17:09:36.096Z,81.53
2023-02-02T17:12:09.323Z,81.64
2023-02-02T17:14:38.264Z,81.71
2023-02-02T17:17:06.586Z,81.50
2023-02-02T17:19:34.076Z,81.90
2023-02-02T17:22:05.125Z,81.59
2023-02-02T17:24:33.519Z,81.64
2023-02-02T17:27:01.494Z,81.67
2023-02-02T17:29:30.360Z,81.62
2023-02-02T17:31:57.833Z,81.67
2023-02-02T17:34:25.941Z,81.62
2023-02-02T17:36:54.229Z,81.72
2023-02-02T17:39:21.647Z,81.58
2023-02-02T17:41:49.190Z,81.79
2023-02-02T17:44:16.622Z,81.84
2023-02-02T17:46:45.337Z,81.73
2023-02-02T17:49:12.745Z,81.67
2023-02-02T17:51:43.339Z,81.72
2023-02-02T17:54:11.959Z,81.80
2023-02-02T17:56:39.474Z,81.54
2023-02-02T17:59:06.985Z,81.65
2023-02-02T18:01:36.970Z,81.82
2023-02-02T18:04:07.212Z,81.58
2023-02-02T18:06:34.611Z,81.76
2023-02-02T18:09:02.042Z,81.67
2023-02-02T18:11:29.825Z,81.64
2023-02-02T18:13:57.220Z,81.58
2023-02-02T18:16:24.633Z,81.58
2023-02-02T18:18:53.616Z,81.67
2023-02-02T18:21:22.399Z,81.54
2023-02-02T18:23:49.978Z,81.49
2023-02-02T18:26:27.816Z,81.68
2023-02-02T18:28:55.266Z,81.66
2023-02-02T18:31:23.875Z,81.62
2023-02-02T18:33:51.436Z,81.65
2023-02-02T18:36:20.344Z,81.43
2023-02-02T18:38:50.856Z,81.70
2023-02-02T18:41:19.396Z,81.44
2023-02-02T18:43:47.906Z,81.49
2023-02-02T18:46:16.015Z,81.66
2023-02-02T18:48:43.510Z,81.32
2023-02-02T18:51:15.587Z,81.40
2023-02-02T18:53:43.079Z,81.26
2023-02-02T18:56:13.099Z,81.13
2023-02-02T18:58:40.736Z,81.05
2023-02-02T19:01:09.240Z,80.82
2023-02-02T19:03:37.454Z,81.02
2023-02-02T19:06:22.586Z,81.00
2023-02-02T19:08:49.980Z,81.09
2023-02-02T19:11:19.542Z,80.88
2023-02-02T19:13:47.355Z,80.98
2023-02-02T19:16:18.422Z,80.91
2023-02-02T19:18:46.211Z,81.17
2023-02-02T19:21:14.431Z,80.95
2023-02-02T19:23:42.445Z,80.88
2023-02-02T19:26:18.282Z,81.00
2023-02-02T19:28:47.132Z,80.85
2023-02-02T19:31:15.424Z,80.76
2023-02-02T19:33:44.197Z,80.74
2023-02-02T19:36:14.598Z,80.49
2023-02-02T19:38:42.180Z,80.65
2023-02-02T19:41:16.120Z,80.56
2023-02-02T19:43:47.586Z,80.67
2023-02-02T19:46:20.219Z,80.54
2023-02-02T19:48:50.510Z,80.73
2023-02-02T19:51:28.601Z,80.62
2023-02-02T19:53:58.791Z,80.43
2023-02-02T19:56:27.499Z,80.23
2023-02-02T19:58:54.896Z,80.20
2023-02-02T20:01:25.600Z,80.42
2023-02-02T20:03:53.228Z,80.46
2023-02-02T20:06:24.472Z,80.13
2023-02-02T20:08:52.147Z,80.03
2023-02-02T20:11:32.871Z,80.01
2023-02-02T20:14:00.727Z,80.34
2023-02-02T20:16:36.879Z,80.02
2023-02-02T20:19:04.419Z,80.04
2023-02-02T20:21:35.106Z,79.84
2023-02-02T20:24:02.562Z,80.01
2023-02-02T20:26:30.337Z,80.02
2023-02-02T20:28:58.761Z,79.90
2023-02-02T20:31:28.453Z,79.89
2023-02-02T20:33:58.263Z,79.84
2023-02-02T20:36:31.718Z,79.44
2023-02-02T20:39:01.262Z,79.52
2023-02-02T20:41:28.654Z,79.58
2023-02-02T20:43:56.107Z,79.82
2023-02-02T20:46:23.584Z,79.46
2023-02-02T20:48:50.965Z,79.61
2023-02-02T20:51:19.676Z,79.44
2023-02-02T20:53:47.178Z,79.50
2023-02-02T20:56:14.565Z,80.03
2023-02-02T20:58:41.937Z,79.74
2023-02-02T21:01:09.375Z,79.67
2023-02-02T21:03:36.804Z,79.61
2023-02-02T21:06:04.367Z,79.73
2023-02-02T21:08:33.400Z,79.47
2023-02-02T21:11:00.786Z,79.82
2023-02-02T21:13:28.144Z,79.51
2023-02-02T21:15:55.525Z,79.56
2023-02-02T21:18:22.957Z,79.56
2023-02-02T21:20:50.335Z,80.01
2023-02-02T21:23:18.176Z,79.78
2023-02-02T21:25:46.869Z,79.46
2023-02-02T21:28:14.248Z,79.48
2023-02-02T21:30:41.844Z,79.33
2023-02-02T21:33:09.285Z,79.55
2023-02-02T21:35:36.667Z,79.52
2023-02-02T21:38:08.241Z,79.56
2023-02-02T21:40:35.624Z,79.53
2023-02-02T21:43:12.297Z,79.29
2023-02-02T21:45:39.757Z,79.47
2023-02-02T21:48:08.370Z,79.02
2023-02-02T21:50:36.791Z,79.52
2023-02-02T21:53:13.429Z,79.37
2023-02-02T21:55:40.912Z,79.49
2023-02-02T21:58:18.167Z,79.27
2023-02-02T22:00:45.844Z,79.47
2023-02-02T22:03:31.669Z,79.20
2023-02-02T22:06:02.652Z,79.20
2023-02-02T22:08:34.169Z,79.23
2023-02-02T22:11:01.585Z,79.40
2023-02-02T22:13:34.565Z,79.20
2023-02-02T22:16:03.269Z,79.17
2023-02-02T22:18:30.734Z,79.53
2023-02-02T22:20:58.091Z,79.50
2023-02-02T22:23:26.358Z,79.12
2023-02-02T22:25:55.169Z,79.22
2023-02-02T22:28:23.657Z,79.13
2023-02-02T22:30:53.960Z,79.17
2023-02-02T22:33:21.848Z,79.08
2023-02-02T22:35:49.745Z,78.96
2023-02-02T22:38:18.032Z,78.88
2023-02-02T22:40:45.481Z,78.73
2023-02-02T22:43:16.096Z,78.92
2023-02-02T22:45:43.528Z,78.99
2023-02-02T22:48:12.521Z,79.10
2023-02-02T22:50:40.325Z,79.13
2023-02-02T22:53:07.767Z,79.04
2023-02-02T22:55:35.469Z,79.19
2023-02-02T22:58:02.835Z,79.09
2023-02-02T23:00:32.190Z,79.18
2023-02-02T23:02:59.607Z,79.02
2023-02-02T23:05:28.946Z,78.99
2023-02-02T23:07:56.702Z,79.22
2023-02-02T23:10:25.411Z,79.22
2023-02-02T23:12:54.883Z,79.50
2023-02-02T23:15:22.510Z,79.23
2023-02-02T23:17:50.167Z,79.22
2023-02-02T23:20:17.957Z,79.30
2023-02-02T23:22:46.714Z,79.32
2023-02-02T23:25:14.248Z,79.19
2023-02-02T23:27:41.985Z,79.45
2023-02-02T23:30:10.324Z,79.20
2023-02-02T23:32:37.740Z,79.27
2023-02-02T23:35:05.381Z,78.91
2023-02-02T23:37:33.016Z,79.13
2023-02-02T23:40:01.702Z,79.45
2023-02-02T23:42:29.060Z,79.23
2023-02-02T23:44:56.618Z,79.09
2023-02-02T23:47:24.118Z,79.26
2023-02-02T23:49:51.561Z,79.45
2023-02-02T23:52:18.992Z,79.40
2023-02-02T23:54:46.458Z,79.40
2023-02-02T23:57:15.289Z,79.15
2023-02-02T23:59:42.644Z,79.45
